createdAt,value
2022-12-31T00:01:37.099Z,0.55
2022-12-31T00:04:04.046Z,1.27
2022-12-31T00:06:34.358Z,0.35
2022-12-31T00:09:03.566Z,0.22
2022-12-31T00:11:30.978Z,1.20
2022-12-31T00:13:58.334Z,0.77
2022-12-31T00:16:28.671Z,0.65
2022-12-31T00:18:57.168Z,0.10
2022-12-31T00:21:23.682Z,1.02
2022-12-31T00:23:50.247Z,0.55
2022-12-31T00:26:19.418Z,0.85
2022-12-31T00:28:46.128Z,0.32
2022-12-31T00:31:15.728Z,0.20
2022-12-31T00:33:43.263Z,0.20
2022-12-31T00:36:15.678Z,0.45
2022-12-31T00:38:44.269Z,0.63
2022-12-31T00:41:12.491Z,0.32
2022-12-31T00:43:39.288Z,0.55
2022-12-31T00:46:06.801Z,0.40
2022-12-31T00:48:34.484Z,0.40
2022-12-31T00:51:02.105Z,0.17
2022-12-31T00:53:29.588Z,0.38
2022-12-31T00:56:05.024Z,0.10
2022-12-31T00:58:32.394Z,0.10
2022-12-31T01:00:58.928Z,0.20
2022-12-31T01:03:25.821Z,0.50
2022-12-31T01:05:52.470Z,0.25
2022-12-31T01:08:19.006Z,0.22
2022-12-31T01:10:49.793Z,0.10
2022-12-31T01:13:16.277Z,0.20
2022-12-31T01:15:42.815Z,0.20
2022-12-31T01:18:09.817Z,0.20
2022-12-31T01:20:42.182Z,0.80
2022-12-31T01:23:10.066Z,0.17
2022-12-31T01:25:40.742Z,0.40
2022-12-31T01:28:08.775Z,0.28
2022-12-31T01:30:39.056Z,0.10
2022-12-31T01:33:05.634Z,0.08
2022-12-31T01:35:35.043Z,0.80
2022-12-31T01:38:02.037Z,0.28
2022-12-31T01:40:28.783Z,0.25
2022-12-31T01:42:56.923Z,0.10
2022-12-31T01:45:23.788Z,0.32
2022-12-31T01:47:54.641Z,1.10
2022-12-31T01:50:31.845Z,0.03
2022-12-31T01:53:02.342Z,0.40
2022-12-31T01:55:46.507Z,0.13
2022-12-31T01:58:20.132Z,0.63
2022-12-31T02:00:49.289Z,0.55
2022-12-31T02:03:16.073Z,0.30
2022-12-31T02:05:56.661Z,0.63
2022-12-31T02:08:23.540Z,0.03
2022-12-31T02:10:50.067Z,0.45
2022-12-31T02:13:16.670Z,0.15
2022-12-31T02:16:06.799Z,0.68
2022-12-31T02:18:46.991Z,0.22
2022-12-31T02:21:42.989Z,0.55
2022-12-31T02:24:48.316Z,0.28
2022-12-31T02:30:11.148Z,0.15
2022-12-31T02:32:56.217Z,0.50
2022-12-31T02:35:30.347Z,0.15
2022-12-31T02:38:29.726Z,1.17
2022-12-31T02:40:57.019Z,0.10
2022-12-31T02:43:24.489Z,0.10
2022-12-31T02:46:04.408Z,0.30
2022-12-31T02:48:48.799Z,0.50
2022-12-31T02:52:08.587Z,0.00
2022-12-31T02:54:55.147Z,0.82
2022-12-31T02:57:37.976Z,1.13
2022-12-31T03:00:09.016Z,0.68
2022-12-31T03:02:39.713Z,1.20
2022-12-31T03:05:07.424Z,0.10
2022-12-31T03:07:33.958Z,0.30
2022-12-31T03:10:01.084Z,0.43
2022-12-31T03:12:30.898Z,0.38
2022-12-31T03:14:58.096Z,1.20
2022-12-31T03:17:24.991Z,1.08
2022-12-31T03:19:51.772Z,1.35
2022-12-31T03:22:18.331Z,1.38
2022-12-31T03:24:44.981Z,0.28
2022-12-31T03:27:11.455Z,0.70
2022-12-31T03:29:37.927Z,0.35
2022-12-31T03:32:04.664Z,0.82
2022-12-31T03:34:31.145Z,0.52
2022-12-31T03:36:57.660Z,0.88
2022-12-31T03:39:24.203Z,0.30
2022-12-31T03:41:50.737Z,0.10
2022-12-31T03:44:17.311Z,0.80
2022-12-31T03:46:43.953Z,0.70
2022-12-31T03:49:10.689Z,1.38
2022-12-31T03:51:37.177Z,0.22
2022-12-31T03:54:03.900Z,0.47
2022-12-31T03:56:30.421Z,1.75
2022-12-31T03:58:57.001Z,1.95
2022-12-31T04:01:23.599Z,2.45
2022-12-31T04:03:50.338Z,0.85
2022-12-31T04:06:16.951Z,0.57
2022-12-31T04:08:43.735Z,1.67
2022-12-31T04:11:10.250Z,0.50
2022-12-31T04:13:36.949Z,1.20
2022-12-31T04:16:03.949Z,0.52
2022-12-31T04:18:30.469Z,1.40
2022-12-31T04:21:02.457Z,0.30
2022-12-31T04:23:29.092Z,1.55
2022-12-31T04:25:55.595Z,0.45
2022-12-31T04:28:22.226Z,1.08
2022-12-31T04:30:48.828Z,0.40
2022-12-31T04:33:15.421Z,1.50
2022-12-31T04:35:41.954Z,0.90
2022-12-31T04:38:08.615Z,3.05
2022-12-31T04:40:35.192Z,1.20
2022-12-31T04:43:01.661Z,2.38
2022-12-31T04:45:28.263Z,0.55
2022-12-31T04:47:54.770Z,2.33
2022-12-31T04:50:21.249Z,1.05
2022-12-31T04:52:47.722Z,1.77
2022-12-31T04:55:14.222Z,2.38
2022-12-31T04:57:41.198Z,0.47
2022-12-31T05:00:08.537Z,0.60
2022-12-31T05:02:40.427Z,2.63
2022-12-31T05:05:12.368Z,0.95
2022-12-31T05:07:38.829Z,0.70
2022-12-31T05:10:05.977Z,1.98
2022-12-31T05:12:32.577Z,3.60
2022-12-31T05:14:59.246Z,2.50
2022-12-31T05:17:25.820Z,3.38
2022-12-31T05:19:52.307Z,1.88
2022-12-31T05:22:18.818Z,1.27
2022-12-31T05:24:45.333Z,1.38
2022-12-31T05:27:11.799Z,1.02
2022-12-31T05:29:38.278Z,0.73
2022-12-31T05:32:04.937Z,0.15
2022-12-31T05:34:31.497Z,2.03
2022-12-31T05:36:58.121Z,1.58
2022-12-31T05:39:24.637Z,0.77
2022-12-31T05:41:51.377Z,2.28
2022-12-31T05:44:17.902Z,2.63
2022-12-31T05:46:44.454Z,3.63
2022-12-31T05:49:10.985Z,0.40
2022-12-31T05:51:37.494Z,3.10
2022-12-31T05:54:04.343Z,0.60
2022-12-31T05:56:31.256Z,1.80
2022-12-31T05:58:57.894Z,1.58
2022-12-31T06:01:24.518Z,1.70
2022-12-31T06:03:51.111Z,1.52
2022-12-31T06:06:17.769Z,1.05
2022-12-31T06:08:44.578Z,1.13
2022-12-31T06:11:11.152Z,1.63
2022-12-31T06:13:37.667Z,2.15
2022-12-31T06:16:08.096Z,3.08
2022-12-31T06:18:34.813Z,1.42
2022-12-31T06:21:01.363Z,3.58
2022-12-31T06:23:27.931Z,3.35
2022-12-31T06:25:54.409Z,1.83
2022-12-31T06:28:21.176Z,2.58
2022-12-31T06:30:48.275Z,1.60
2022-12-31T06:33:14.899Z,2.92
2022-12-31T06:35:41.383Z,1.00
2022-12-31T06:38:08.143Z,2.92
2022-12-31T06:40:37.413Z,2.75
2022-12-31T06:43:04.127Z,2.10
2022-12-31T06:45:30.716Z,1.77
2022-12-31T06:47:57.357Z,2.45
2022-12-31T06:50:23.949Z,1.45
2022-12-31T06:52:50.456Z,3.47
2022-12-31T06:55:17.240Z,1.83
2022-12-31T06:57:44.074Z,3.58
2022-12-31T07:00:11.343Z,1.48
2022-12-31T07:02:40.783Z,1.45
2022-12-31T07:05:30.248Z,1.58
2022-12-31T07:08:37.648Z,1.95
2022-12-31T07:11:21.395Z,1.23
2022-12-31T07:13:57.194Z,1.20
2022-12-31T07:16:42.739Z,2.00
2022-12-31T07:19:40.027Z,1.95
2022-12-31T07:22:13.745Z,2.22
2022-12-31T07:24:40.842Z,3.10
2022-12-31T07:27:12.746Z,1.88
2022-12-31T07:29:48.382Z,2.58
2022-12-31T07:32:52.475Z,2.35
2022-12-31T07:35:45.073Z,1.98
2022-12-31T07:38:26.587Z,1.48
2022-12-31T07:41:11.414Z,1.55
2022-12-31T07:44:03.551Z,2.50
2022-12-31T07:46:42.090Z,1.33
2022-12-31T07:49:13.128Z,4.05
2022-12-31T07:51:40.651Z,1.60
2022-12-31T07:54:13.379Z,1.70
2022-12-31T07:56:40.760Z,2.10
2022-12-31T07:59:34.653Z,1.63
2022-12-31T08:02:14.370Z,2.47
2022-12-31T08:04:50.074Z,1.15
2022-12-31T08:10:33.038Z,2.75
2022-12-31T08:13:03.184Z,1.55
2022-12-31T08:15:30.800Z,0.95
2022-12-31T08:17:57.839Z,2.17
2022-12-31T08:20:25.621Z,2.38
2022-12-31T08:23:11.144Z,1.95
2022-12-31T08:26:02.265Z,2.60
2022-12-31T08:28:46.686Z,3.55
2022-12-31T08:31:28.473Z,2.38
2022-12-31T08:34:14.388Z,3.42
2022-12-31T08:36:56.907Z,2.00
2022-12-31T08:39:32.848Z,2.10
2022-12-31T08:42:02.075Z,1.35
2022-12-31T08:44:53.715Z,2.55
2022-12-31T08:47:39.086Z,3.35
2022-12-31T08:50:06.606Z,2.83
2022-12-31T08:52:33.536Z,3.13
2022-12-31T08:55:00.713Z,2.15
2022-12-31T08:57:45.865Z,4.95
2022-12-31T09:00:18.386Z,4.22
2022-12-31T09:02:50.606Z,3.40
2022-12-31T09:05:20.070Z,1.00
2022-12-31T09:08:23.565Z,2.78
2022-12-31T09:10:58.489Z,2.80
2022-12-31T09:13:31.890Z,2.40
2022-12-31T09:15:58.403Z,2.63
2022-12-31T09:18:31.255Z,4.63
2022-12-31T09:20:59.876Z,3.05
2022-12-31T09:23:26.749Z,3.47
2022-12-31T09:26:44.261Z,3.72
2022-12-31T09:29:22.629Z,3.40
2022-12-31T09:31:51.587Z,1.13
2022-12-31T09:34:24.245Z,2.42
2022-12-31T09:37:15.599Z,3.08
2022-12-31T09:39:47.386Z,5.53
2022-12-31T09:42:53.699Z,4.28
2022-12-31T09:45:54.415Z,2.67
2022-12-31T09:48:32.591Z,2.35
2022-12-31T09:51:31.589Z,3.60
2022-12-31T09:54:22.315Z,3.45
2022-12-31T09:57:06.979Z,2.42
2022-12-31T09:59:59.505Z,2.55
2022-12-31T10:02:47.134Z,0.90
2022-12-31T10:05:38.836Z,2.55
2022-12-31T10:08:22.551Z,2.00
2022-12-31T10:11:01.046Z,2.90
2022-12-31T10:14:15.833Z,2.80
2022-12-31T10:16:51.584Z,3.15
2022-12-31T10:19:36.998Z,1.50
2022-12-31T10:22:22.154Z,2.45
2022-12-31T10:25:11.716Z,3.80
2022-12-31T10:28:04.532Z,1.42
2022-12-31T10:30:34.954Z,3.35
2022-12-31T10:33:16.925Z,2.53
2022-12-31T10:36:02.478Z,3.40
2022-12-31T10:38:57.039Z,4.72
2022-12-31T10:41:26.610Z,2.35
2022-12-31T10:47:13.484Z,2.78
2022-12-31T10:50:03.836Z,2.05
2022-12-31T10:53:05.541Z,1.65
2022-12-31T10:55:37.923Z,5.35
2022-12-31T10:58:10.289Z,2.60
2022-12-31T11:01:05.663Z,2.05
2022-12-31T11:04:01.011Z,3.75
2022-12-31T11:06:46.493Z,3.00
2022-12-31T11:10:06.573Z,2.40
2022-12-31T11:12:52.483Z,3.97
2022-12-31T11:15:21.675Z,3.80
2022-12-31T11:18:03.817Z,2.70
2022-12-31T11:20:39.198Z,2.65
2022-12-31T11:23:33.413Z,1.38
2022-12-31T11:26:14.943Z,4.97
2022-12-31T11:29:03.183Z,2.22
2022-12-31T11:31:37.501Z,1.75
2022-12-31T11:34:21.649Z,2.70
2022-12-31T11:37:20.168Z,3.85
2022-12-31T11:39:59.138Z,2.63
2022-12-31T11:42:47.537Z,4.20
2022-12-31T11:45:31.694Z,3.42
2022-12-31T11:51:23.149Z,3.60
2022-12-31T11:54:26.628Z,3.20
2022-12-31T11:57:12.135Z,3.45
2022-12-31T11:59:38.839Z,1.70
2022-12-31T12:02:24.271Z,1.48
2022-12-31T12:04:52.449Z,2.38
2022-12-31T12:07:20.022Z,2.80
2022-12-31T12:09:46.950Z,4.55
2022-12-31T12:12:13.721Z,3.35
2022-12-31T12:14:42.477Z,2.50
2022-12-31T12:17:14.993Z,2.22
2022-12-31T12:19:45.188Z,2.35
2022-12-31T12:22:22.272Z,3.92
2022-12-31T12:24:57.417Z,4.30
2022-12-31T12:27:29.082Z,5.03
2022-12-31T12:29:55.655Z,4.13
2022-12-31T12:32:25.035Z,4.93
2022-12-31T12:34:52.919Z,3.10
2022-12-31T12:37:24.947Z,1.60
2022-12-31T12:40:18.194Z,3.20
2022-12-31T12:42:48.827Z,3.83
2022-12-31T12:45:27.521Z,2.15
2022-12-31T12:48:00.837Z,4.15
2022-12-31T12:50:42.003Z,2.95
2022-12-31T12:53:47.435Z,4.85
2022-12-31T12:56:32.762Z,4.22
2022-12-31T12:59:27.220Z,2.13
2022-12-31T13:02:20.881Z,3.53
2022-12-31T13:05:15.156Z,2.47
2022-12-31T13:07:55.854Z,3.30
2022-12-31T13:10:51.015Z,5.20
2022-12-31T13:13:39.697Z,2.65
2022-12-31T13:16:20.732Z,2.63
2022-12-31T13:19:05.927Z,1.75
2022-12-31T13:21:50.181Z,2.83
2022-12-31T13:24:25.618Z,4.50
2022-12-31T13:27:13.407Z,5.43
2022-12-31T13:29:42.290Z,3.67
2022-12-31T13:32:14.116Z,4.40
2022-12-31T13:34:44.261Z,4.50
2022-12-31T13:37:40.174Z,2.58
2022-12-31T13:40:30.834Z,4.68
2022-12-31T13:43:13.865Z,3.30
2022-12-31T13:45:45.179Z,4.72
2022-12-31T13:48:23.028Z,4.32
2022-12-31T13:51:01.882Z,3.80
2022-12-31T13:53:48.861Z,3.53
2022-12-31T13:56:21.289Z,3.75
2022-12-31T13:59:01.245Z,3.90
2022-12-31T14:02:03.571Z,4.00
2022-12-31T14:04:51.990Z,3.42
2022-12-31T14:07:35.387Z,3.88
2022-12-31T14:10:13.781Z,3.75
2022-12-31T14:13:06.339Z,4.80
2022-12-31T14:15:46.132Z,5.70
2022-12-31T14:18:38.039Z,4.97
2022-12-31T14:21:13.950Z,3.50
2022-12-31T14:24:20.578Z,2.88
2022-12-31T14:26:52.406Z,2.03
2022-12-31T14:29:40.909Z,4.60
2022-12-31T14:32:36.302Z,2.75
2022-12-31T14:35:05.816Z,3.17
2022-12-31T14:37:47.260Z,5.28
2022-12-31T14:40:22.890Z,5.07
2022-12-31T14:45:41.666Z,3.20
2022-12-31T14:48:31.871Z,3.53
2022-12-31T14:51:02.239Z,3.53
2022-12-31T14:53:29.313Z,2.78
2022-12-31T14:56:20.397Z,3.80
2022-12-31T14:58:56.610Z,3.97
2022-12-31T15:01:23.261Z,2.50
2022-12-31T15:03:49.949Z,5.03
2022-12-31T15:06:34.712Z,3.35
2022-12-31T15:09:29.096Z,2.65
2022-12-31T15:11:55.614Z,2.60
2022-12-31T15:14:49.528Z,5.32
2022-12-31T15:17:32.761Z,3.55
2022-12-31T15:20:17.827Z,2.63
2022-12-31T15:22:49.527Z,2.58
2022-12-31T15:25:40.087Z,3.35
2022-12-31T15:28:23.419Z,4.72
2022-12-31T15:30:51.154Z,2.95
2022-12-31T15:33:29.336Z,2.25
2022-12-31T15:35:57.527Z,3.67
2022-12-31T15:38:33.316Z,4.13
2022-12-31T15:41:00.357Z,4.80
2022-12-31T15:43:44.985Z,2.13
2022-12-31T15:46:22.199Z,2.78
2022-12-31T15:48:52.862Z,2.72
2022-12-31T15:51:25.434Z,3.75
2022-12-31T15:53:54.677Z,3.10
2022-12-31T15:56:42.248Z,2.05
2022-12-31T15:59:14.157Z,3.00
2022-12-31T16:01:43.294Z,4.00
2022-12-31T16:04:29.860Z,2.78
2022-12-31T16:07:02.339Z,2.92
2022-12-31T16:09:34.921Z,5.53
2022-12-31T16:12:08.512Z,2.88
2022-12-31T16:14:44.715Z,2.42
2022-12-31T16:17:29.237Z,2.63
2022-12-31T16:19:56.879Z,3.97
2022-12-31T16:22:29.567Z,3.55
2022-12-31T16:27:46.137Z,3.13
2022-12-31T16:30:21.509Z,3.08
2022-12-31T16:32:50.193Z,5.15
2022-12-31T16:35:36.722Z,7.22
2022-12-31T16:38:17.509Z,3.47
2022-12-31T16:41:14.737Z,2.70
2022-12-31T16:43:42.250Z,5.43
2022-12-31T16:46:22.446Z,4.13
2022-12-31T16:48:55.028Z,3.33
2022-12-31T16:51:25.459Z,3.80
2022-12-31T16:53:52.428Z,2.75
2022-12-31T16:56:38.070Z,3.22
2022-12-31T16:59:11.975Z,4.47
2022-12-31T17:01:40.564Z,3.47
2022-12-31T17:04:11.314Z,5.00
2022-12-31T17:06:37.979Z,5.85
2022-12-31T17:09:19.311Z,2.78
2022-12-31T17:11:56.785Z,2.88
2022-12-31T17:14:28.388Z,1.98
2022-12-31T17:17:07.069Z,3.75
2022-12-31T17:19:45.234Z,3.53
2022-12-31T17:22:32.837Z,2.58
2022-12-31T17:25:14.978Z,3.65
2022-12-31T17:27:53.173Z,3.72
2022-12-31T17:30:22.946Z,3.13
2022-12-31T17:32:49.511Z,2.13
2022-12-31T17:35:34.014Z,4.30
2022-12-31T17:38:22.401Z,4.00
2022-12-31T17:40:54.146Z,2.50
2022-12-31T17:43:23.288Z,1.88
2022-12-31T17:45:54.503Z,4.38
2022-12-31T17:48:24.098Z,2.47
2022-12-31T17:50:51.780Z,3.28
2022-12-31T17:53:19.168Z,2.85
2022-12-31T17:55:48.233Z,3.80
2022-12-31T17:58:29.629Z,4.97
2022-12-31T18:00:57.880Z,4.35
2022-12-31T18:03:24.656Z,4.22
2022-12-31T18:05:51.384Z,2.63
2022-12-31T18:08:17.852Z,7.53
2022-12-31T18:10:44.879Z,5.50
2022-12-31T18:13:23.540Z,3.45
2022-12-31T18:15:50.331Z,5.40
2022-12-31T18:18:25.167Z,2.42
2022-12-31T18:20:55.334Z,4.50
2022-12-31T18:23:46.304Z,4.40
2022-12-31T18:26:22.871Z,2.25
2022-12-31T18:29:01.156Z,3.30
2022-12-31T18:31:32.868Z,2.95
2022-12-31T18:34:02.872Z,2.22
2022-12-31T18:36:33.033Z,5.07
2022-12-31T18:38:59.645Z,4.18
2022-12-31T18:41:33.309Z,3.78
2022-12-31T18:44:01.307Z,3.65
2022-12-31T18:46:32.062Z,3.72
2022-12-31T18:48:59.322Z,4.43
2022-12-31T18:51:32.485Z,3.83
2022-12-31T18:54:11.881Z,4.68
2022-12-31T18:56:47.756Z,6.00
2022-12-31T18:59:21.657Z,3.92
2022-12-31T19:01:51.823Z,5.20
2022-12-31T19:04:27.527Z,6.93
2022-12-31T19:06:58.270Z,5.22
2022-12-31T19:12:14.183Z,3.50
2022-12-31T19:14:41.191Z,3.30
2022-12-31T19:19:37.091Z,5.90
2022-12-31T19:22:04.678Z,5.93
2022-12-31T19:24:31.534Z,3.50
2022-12-31T19:26:58.050Z,4.47
2022-12-31T19:29:27.226Z,3.10
2022-12-31T19:31:54.264Z,5.20
2022-12-31T19:34:21.561Z,5.47
2022-12-31T19:36:52.033Z,4.53
2022-12-31T19:39:23.301Z,6.85
2022-12-31T19:41:56.549Z,5.63
2022-12-31T19:44:29.418Z,6.18
2022-12-31T19:46:58.235Z,3.67
2022-12-31T19:49:27.965Z,5.50
2022-12-31T19:51:54.850Z,2.95
2022-12-31T19:54:24.856Z,7.55
2022-12-31T19:56:56.924Z,4.93
2022-12-31T19:59:28.827Z,3.85
2022-12-31T20:01:59.298Z,3.45
2022-12-31T20:04:30.181Z,5.07
2022-12-31T20:06:57.655Z,5.90
2022-12-31T20:09:24.654Z,4.28
2022-12-31T20:11:54.678Z,4.15
2022-12-31T20:14:22.148Z,5.95
2022-12-31T20:17:00.956Z,2.92
2022-12-31T20:19:28.194Z,4.35
2022-12-31T20:21:57.808Z,5.70
2022-12-31T20:24:24.722Z,6.07
2022-12-31T20:26:51.307Z,4.30
2022-12-31T20:29:18.648Z,6.18
2022-12-31T20:31:45.475Z,4.85
2022-12-31T20:34:17.948Z,5.22
2022-12-31T20:36:47.623Z,5.50
2022-12-31T20:41:55.717Z,5.78
2022-12-31T20:44:24.276Z,3.22
2022-12-31T20:46:51.839Z,4.25
2022-12-31T20:49:37.164Z,5.07
2022-12-31T20:52:06.925Z,3.80
2022-12-31T20:54:33.468Z,4.85
2022-12-31T20:57:02.480Z,2.67
2022-12-31T20:59:29.391Z,7.57
2022-12-31T21:04:45.762Z,3.85
2022-12-31T21:07:16.805Z,5.00
2022-12-31T21:09:48.819Z,2.97
2022-12-31T21:12:18.505Z,4.40
2022-12-31T21:17:19.904Z,4.50
2022-12-31T21:19:46.886Z,3.25
2022-12-31T21:22:13.415Z,5.75
2022-12-31T21:24:40.836Z,5.05
2022-12-31T21:27:09.048Z,4.90
2022-12-31T21:29:55.737Z,4.13
2022-12-31T21:32:25.761Z,6.90
2022-12-31T21:35:23.177Z,4.25
2022-12-31T21:37:58.643Z,7.13
2022-12-31T21:40:25.389Z,5.85
2022-12-31T21:42:52.480Z,4.05
2022-12-31T21:45:19.397Z,3.53
2022-12-31T21:47:47.851Z,4.45
2022-12-31T21:50:14.717Z,3.00
2022-12-31T21:52:41.847Z,2.70
2022-12-31T21:55:15.787Z,3.50
2022-12-31T21:58:15.702Z,5.38
2022-12-31T22:00:42.176Z,3.08
2022-12-31T22:03:12.472Z,2.80
2022-12-31T22:05:55.720Z,8.70
2022-12-31T22:08:22.629Z,3.92
2022-12-31T22:10:52.802Z,4.72
2022-12-31T22:13:20.366Z,7.03
2022-12-31T22:15:52.293Z,7.25
2022-12-31T22:18:20.824Z,3.95
2022-12-31T22:20:49.033Z,5.07
2022-12-31T22:23:16.128Z,5.35
2022-12-31T22:25:42.865Z,3.95
2022-12-31T22:28:37.508Z,4.22
2022-12-31T22:30:57.125Z,3.70
2022-12-31T22:33:23.854Z,4.72
2022-12-31T22:35:58.276Z,4.57
2022-12-31T22:38:26.116Z,3.40
2022-12-31T22:41:01.957Z,6.55
2022-12-31T22:43:32.767Z,3.65
2022-12-31T22:46:04.906Z,5.43
2022-12-31T22:48:31.511Z,4.45
2022-12-31T22:50:58.014Z,3.88
2022-12-31T22:53:24.789Z,6.25
2022-12-31T22:55:54.446Z,4.80
2022-12-31T23:00:48.082Z,6.03
2022-12-31T23:03:15.009Z,6.75
2022-12-31T23:05:42.619Z,12.45
2022-12-31T23:08:18.726Z,24.95
2022-12-31T23:10:50.826Z,11.27
2022-12-31T23:13:17.411Z,14.55
2022-12-31T23:15:45.090Z,16.45
2022-12-31T23:18:11.593Z,15.07
2022-12-31T23:20:38.452Z,18.60
2022-12-31T23:23:06.461Z,12.13
2022-12-31T23:25:43.115Z,15.95
2022-12-31T23:28:13.126Z,16.80
2022-12-31T23:30:40.303Z,9.55
2022-12-31T23:33:08.134Z,9.88
2022-12-31T23:35:34.714Z,13.23
2022-12-31T23:38:01.193Z,12.40
2022-12-31T23:40:27.669Z,16.02
2022-12-31T23:42:54.141Z,10.48
2022-12-31T23:45:20.611Z,7.30
2022-12-31T23:47:47.089Z,14.57
2022-12-31T23:50:13.682Z,5.38
2022-12-31T23:52:40.179Z,7.90
2022-12-31T23:55:06.900Z,7.25
2022-12-31T23:57:33.440Z,5.72
2022-12-31T23:59:59.937Z,4.13
